sensor_id;sensor_type;location;lat;lon;timestamp;P1;durP1;ratioP1;P2;durP2;ratioP2
74309;SDS011;62722;51.142;17.052;2023-08-30T00:02:10;4.43;;;2.88;;
74309;SDS011;62722;51.142;17.052;2023-08-30T00:04:37;7.20;;;3.28;;
74309;SDS011;62722;51.142;17.052;2023-08-30T00:07:04;4.53;;;2.50;;
74309;SDS011;62722;51.142;17.052;2023-08-30T00:09:31;4.85;;;2.45;;
74309;SDS011;62722;51.142;17.052;2023-08-30T00:11:58;4.35;;;2.20;;
74309;SDS011;62722;51.142;17.052;2023-08-30T00:14:25;4.43;;;2.15;;
74309;SDS011;62722;51.142;17.052;2023-08-30T00:16:54;4.00;;;2.40;;
74309;SDS011;62722;51.142;17.052;2023-08-30T00:19:21;4.03;;;2.17;;
74309;SDS011;62722;51.142;17.052;2023-08-30T00:21:49;4.68;;;2.50;;
74309;SDS011;62722;51.142;17.052;2023-08-30T00:24:15;4.07;;;2.10;;
74309;SDS011;62722;51.142;17.052;2023-08-30T00:26:43;4.30;;;2.15;;
74309;SDS011;62722;51.142;17.052;2023-08-30T00:29:10;4.85;;;2.00;;
74309;SDS011;62722;51.142;17.052;2023-08-30T00:31:40;3.97;;;1.60;;
74309;SDS011;62722;51.142;17.052;2023-08-30T00:34:08;3.30;;;1.80;;
74309;SDS011;62722;51.142;17.052;2023-08-30T00:36:35;3.60;;;1.77;;
74309;SDS011;62722;51.142;17.052;2023-08-30T00:39:02;3.30;;;1.65;;
74309;SDS011;62722;51.142;17.052;2023-08-30T00:41:34;2.47;;;1.40;;
74309;SDS011;62722;51.142;17.052;2023-08-30T00:44:01;3.70;;;1.70;;
74309;SDS011;62722;51.142;17.052;2023-08-30T00:46:28;4.28;;;1.77;;
74309;SDS011;62722;51.142;17.052;2023-08-30T00:48:55;3.17;;;2.00;;
74309;SDS011;62722;51.142;17.052;2023-08-30T00:51:24;3.80;;;1.45;;
74309;SDS011;62722;51.142;17.052;2023-08-30T00:53:51;3.38;;;1.63;;
74309;SDS011;62722;51.142;17.052;2023-08-30T00:56:19;4.43;;;1.70;;
74309;SDS011;62722;51.142;17.052;2023-08-30T00:58:46;2.75;;;1.60;;
74309;SDS011;62722;51.142;17.052;2023-08-30T01:01:14;3.25;;;1.73;;
74309;SDS011;62722;51.142;17.052;2023-08-30T01:03:41;2.58;;;1.33;;
74309;SDS011;62722;51.142;17.052;2023-08-30T01:06:08;3.15;;;1.55;;
74309;SDS011;62722;51.142;17.052;2023-08-30T01:08:37;2.80;;;1.75;;
74309;SDS011;62722;51.142;17.052;2023-08-30T01:11:07;2.85;;;1.77;;
74309;SDS011;62722;51.142;17.052;2023-08-30T01:13:37;3.40;;;1.77;;
74309;SDS011;62722;51.142;17.052;2023-08-30T01:16:07;3.20;;;1.70;;
74309;SDS011;62722;51.142;17.052;2023-08-30T01:18:35;3.80;;;1.75;;
74309;SDS011;62722;51.142;17.052;2023-08-30T01:21:03;3.92;;;2.03;;
74309;SDS011;62722;51.142;17.052;2023-08-30T01:23:35;4.00;;;1.80;;
74309;SDS011;62722;51.142;17.052;2023-08-30T01:26:06;3.83;;;1.90;;
74309;SDS011;62722;51.142;17.052;2023-08-30T01:31:03;4.57;;;1.85;;
74309;SDS011;62722;51.142;17.052;2023-08-30T01:33:31;4.18;;;1.85;;
74309;SDS011;62722;51.142;17.052;2023-08-30T01:35:59;5.20;;;2.30;;
74309;SDS011;62722;51.142;17.052;2023-08-30T01:38:26;3.47;;;1.98;;
74309;SDS011;62722;51.142;17.052;2023-08-30T01:40:54;3.92;;;2.05;;
74309;SDS011;62722;51.142;17.052;2023-08-30T01:43:21;8.43;;;1.90;;
74309;SDS011;62722;51.142;17.052;2023-08-30T01:45:49;3.00;;;1.80;;
74309;SDS011;62722;51.142;17.052;2023-08-30T01:48:17;4.05;;;1.90;;
74309;SDS011;62722;51.142;17.052;2023-08-30T01:50:45;3.70;;;1.70;;
74309;SDS011;62722;51.142;17.052;2023-08-30T01:53:12;2.92;;;1.60;;
74309;SDS011;62722;51.142;17.052;2023-08-30T01:55:40;2.88;;;1.60;;
74309;SDS011;62722;51.142;17.052;2023-08-30T01:58:07;3.90;;;1.67;;
74309;SDS011;62722;51.142;17.052;2023-08-30T02:00:35;2.60;;;1.42;;
74309;SDS011;62722;51.142;17.052;2023-08-30T02:03:06;2.70;;;1.80;;
74309;SDS011;62722;51.142;17.052;2023-08-30T02:05:35;3.67;;;1.70;;
74309;SDS011;62722;51.142;17.052;2023-08-30T02:08:05;2.80;;;1.63;;
74309;SDS011;62722;51.142;17.052;2023-08-30T02:10:36;3.10;;;1.90;;
74309;SDS011;62722;51.142;17.052;2023-08-30T02:13:04;3.10;;;1.75;;
74309;SDS011;62722;51.142;17.052;2023-08-30T02:15:33;3.75;;;1.90;;
74309;SDS011;62722;51.142;17.052;2023-08-30T02:18:00;5.47;;;1.95;;
74309;SDS011;62722;51.142;17.052;2023-08-30T02:20:28;3.42;;;1.90;;
74309;SDS011;62722;51.142;17.052;2023-08-30T02:22:59;4.22;;;2.08;;
74309;SDS011;62722;51.142;17.052;2023-08-30T02:25:26;3.53;;;1.90;;
74309;SDS011;62722;51.142;17.052;2023-08-30T02:27:53;3.42;;;1.60;;
74309;SDS011;62722;51.142;17.052;2023-08-30T02:30:20;3.20;;;1.83;;
74309;SDS011;62722;51.142;17.052;2023-08-30T02:32:47;3.65;;;1.67;;
74309;SDS011;62722;51.142;17.052;2023-08-30T02:35:14;3.25;;;1.38;;
74309;SDS011;62722;51.142;17.052;2023-08-30T02:37:42;2.75;;;1.60;;
74309;SDS011;62722;51.142;17.052;2023-08-30T02:40:11;2.63;;;1.40;;
74309;SDS011;62722;51.142;17.052;2023-08-30T02:42:38;2.75;;;1.40;;
74309;SDS011;62722;51.142;17.052;2023-08-30T02:45:05;3.33;;;1.45;;
74309;SDS011;62722;51.142;17.052;2023-08-30T02:47:32;3.17;;;1.60;;
74309;SDS011;62722;51.142;17.052;2023-08-30T02:50:00;3.35;;;1.70;;
74309;SDS011;62722;51.142;17.052;2023-08-30T02:52:26;3.58;;;1.85;;
74309;SDS011;62722;51.142;17.052;2023-08-30T02:54:54;3.15;;;1.70;;
74309;SDS011;62722;51.142;17.052;2023-08-30T02:57:22;4.38;;;1.70;;
74309;SDS011;62722;51.142;17.052;2023-08-30T02:59:49;2.58;;;1.60;;
74309;SDS011;62722;51.142;17.052;2023-08-30T03:02:16;3.00;;;1.50;;
74309;SDS011;62722;51.142;17.052;2023-08-30T03:04:43;3.28;;;1.83;;
74309;SDS011;62722;51.142;17.052;2023-08-30T03:07:10;3.15;;;1.58;;
74309;SDS011;62722;51.142;17.052;2023-08-30T03:09:37;3.60;;;1.60;;
74309;SDS011;62722;51.142;17.052;2023-08-30T03:12:06;3.38;;;1.80;;
74309;SDS011;62722;51.142;17.052;2023-08-30T03:14:35;3.30;;;1.40;;
74309;SDS011;62722;51.142;17.052;2023-08-30T03:17:04;2.55;;;1.48;;
74309;SDS011;62722;51.142;17.052;2023-08-30T03:19:31;2.40;;;1.63;;
74309;SDS011;62722;51.142;17.052;2023-08-30T03:21:58;2.58;;;1.40;;
74309;SDS011;62722;51.142;17.052;2023-08-30T03:24:26;2.75;;;1.33;;
74309;SDS011;62722;51.142;17.052;2023-08-30T03:26:52;3.20;;;1.63;;
74309;SDS011;62722;51.142;17.052;2023-08-30T03:29:20;3.67;;;1.60;;
74309;SDS011;62722;51.142;17.052;2023-08-30T03:31:47;3.42;;;1.60;;
74309;SDS011;62722;51.142;17.052;2023-08-30T03:34:14;3.13;;;1.70;;
74309;SDS011;62722;51.142;17.052;2023-08-30T03:36:41;3.10;;;1.48;;
74309;SDS011;62722;51.142;17.052;2023-08-30T03:39:09;2.80;;;1.52;;
74309;SDS011;62722;51.142;17.052;2023-08-30T03:41:38;3.17;;;1.60;;
74309;SDS011;62722;51.142;17.052;2023-08-30T03:44:05;3.58;;;1.42;;
74309;SDS011;62722;51.142;17.052;2023-08-30T03:46:32;2.67;;;1.30;;
74309;SDS011;62722;51.142;17.052;2023-08-30T03:49:01;3.63;;;1.52;;
74309;SDS011;62722;51.142;17.052;2023-08-30T03:51:29;3.60;;;1.45;;
74309;SDS011;62722;51.142;17.052;2023-08-30T03:53:56;3.30;;;1.55;;
74309;SDS011;62722;51.142;17.052;2023-08-30T03:56:23;3.85;;;1.40;;
74309;SDS011;62722;51.142;17.052;2023-08-30T03:58:51;2.70;;;1.50;;
74309;SDS011;62722;51.142;17.052;2023-08-30T04:01:19;3.58;;;1.70;;
74309;SDS011;62722;51.142;17.052;2023-08-30T04:03:47;4.43;;;1.45;;
74309;SDS011;62722;51.142;17.052;2023-08-30T04:06:15;3.10;;;1.58;;
74309;SDS011;62722;51.142;17.052;2023-08-30T04:08:43;3.90;;;1.83;;
74309;SDS011;62722;51.142;17.052;2023-08-30T04:11:09;2.88;;;1.70;;
74309;SDS011;62722;51.142;17.052;2023-08-30T04:13:37;3.95;;;1.70;;
74309;SDS011;62722;51.142;17.052;2023-08-30T04:16:04;3.05;;;1.77;;
74309;SDS011;62722;51.142;17.052;2023-08-30T04:18:31;3.40;;;1.80;;
74309;SDS011;62722;51.142;17.052;2023-08-30T04:20:58;4.35;;;2.10;;
74309;SDS011;62722;51.142;17.052;2023-08-30T04:23:29;3.90;;;1.95;;
74309;SDS011;62722;51.142;17.052;2023-08-30T04:25:56;3.10;;;1.63;;
74309;SDS011;62722;51.142;17.052;2023-08-30T04:28:23;2.88;;;1.30;;
74309;SDS011;62722;51.142;17.052;2023-08-30T04:30:52;4.43;;;1.65;;
74309;SDS011;62722;51.142;17.052;2023-08-30T04:33:20;4.07;;;1.85;;
74309;SDS011;62722;51.142;17.052;2023-08-30T04:35:49;4.90;;;1.75;;
74309;SDS011;62722;51.142;17.052;2023-08-30T04:38:17;3.85;;;1.55;;
74309;SDS011;62722;51.142;17.052;2023-08-30T04:40:45;4.30;;;1.70;;
74309;SDS011;62722;51.142;17.052;2023-08-30T04:43:13;3.58;;;1.70;;
74309;SDS011;62722;51.142;17.052;2023-08-30T04:45:41;3.47;;;1.50;;
74309;SDS011;62722;51.142;17.052;2023-08-30T04:48:08;3.92;;;1.70;;
74309;SDS011;62722;51.142;17.052;2023-08-30T04:50:36;3.08;;;1.55;;
74309;SDS011;62722;51.142;17.052;2023-08-30T04:53:03;3.60;;;1.45;;
74309;SDS011;62722;51.142;17.052;2023-08-30T04:55:30;3.25;;;1.58;;
74309;SDS011;62722;51.142;17.052;2023-08-30T04:57:59;3.85;;;1.50;;
74309;SDS011;62722;51.142;17.052;2023-08-30T05:00:26;3.42;;;1.80;;
74309;SDS011;62722;51.142;17.052;2023-08-30T05:02:53;2.35;;;1.33;;
74309;SDS011;62722;51.142;17.052;2023-08-30T05:05:21;2.60;;;1.30;;
74309;SDS011;62722;51.142;17.052;2023-08-30T05:07:48;4.53;;;1.27;;
74309;SDS011;62722;51.142;17.052;2023-08-30T05:10:16;3.92;;;1.60;;
74309;SDS011;62722;51.142;17.052;2023-08-30T05:12:44;3.58;;;1.35;;
74309;SDS011;62722;51.142;17.052;2023-08-30T05:15:18;2.80;;;1.30;;
74309;SDS011;62722;51.142;17.052;2023-08-30T05:17:45;3.00;;;1.40;;
74309;SDS011;62722;51.142;17.052;2023-08-30T05:20:12;2.47;;;1.40;;
74309;SDS011;62722;51.142;17.052;2023-08-30T05:22:40;3.20;;;1.40;;
74309;SDS011;62722;51.142;17.052;2023-08-30T05:25:08;2.30;;;1.20;;
74309;SDS011;62722;51.142;17.052;2023-08-30T05:27:35;2.75;;;1.42;;
74309;SDS011;62722;51.142;17.052;2023-08-30T05:30:02;2.83;;;1.35;;
74309;SDS011;62722;51.142;17.052;2023-08-30T05:32:31;3.35;;;1.40;;
74309;SDS011;62722;51.142;17.052;2023-08-30T05:34:58;3.28;;;1.45;;
74309;SDS011;62722;51.142;17.052;2023-08-30T05:37:25;2.83;;;1.33;;
74309;SDS011;62722;51.142;17.052;2023-08-30T05:39:52;2.55;;;1.40;;
74309;SDS011;62722;51.142;17.052;2023-08-30T05:42:20;2.83;;;1.20;;
74309;SDS011;62722;51.142;17.052;2023-08-30T05:44:46;3.88;;;1.13;;
74309;SDS011;62722;51.142;17.052;2023-08-30T05:47:14;4.40;;;1.17;;
74309;SDS011;62722;51.142;17.052;2023-08-30T05:49:43;2.72;;;1.10;;
74309;SDS011;62722;51.142;17.052;2023-08-30T05:52:11;2.72;;;1.30;;
74309;SDS011;62722;51.142;17.052;2023-08-30T05:54:38;2.95;;;1.20;;
74309;SDS011;62722;51.142;17.052;2023-08-30T05:57:05;2.80;;;1.10;;
74309;SDS011;62722;51.142;17.052;2023-08-30T05:59:32;2.42;;;1.10;;
74309;SDS011;62722;51.142;17.052;2023-08-30T06:02:00;2.35;;;1.10;;
74309;SDS011;62722;51.142;17.052;2023-08-30T06:04:27;2.38;;;1.20;;
74309;SDS011;62722;51.142;17.052;2023-08-30T06:06:56;2.50;;;1.17;;
74309;SDS011;62722;51.142;17.052;2023-08-30T06:09:23;2.97;;;1.10;;
74309;SDS011;62722;51.142;17.052;2023-08-30T06:11:51;1.80;;;0.90;;
74309;SDS011;62722;51.142;17.052;2023-08-30T06:14:18;1.90;;;1.00;;
74309;SDS011;62722;51.142;17.052;2023-08-30T06:16:46;2.40;;;1.00;;
74309;SDS011;62722;51.142;17.052;2023-08-30T06:19:14;2.40;;;1.10;;
74309;SDS011;62722;51.142;17.052;2023-08-30T06:21:41;2.20;;;1.10;;
74309;SDS011;62722;51.142;17.052;2023-08-30T06:24:10;1.92;;;0.90;;
74309;SDS011;62722;51.142;17.052;2023-08-30T06:26:37;2.88;;;1.08;;
74309;SDS011;62722;51.142;17.052;2023-08-30T06:29:04;2.20;;;1.00;;
74309;SDS011;62722;51.142;17.052;2023-08-30T06:31:31;2.28;;;0.90;;
74309;SDS011;62722;51.142;17.052;2023-08-30T06:33:58;1.70;;;0.90;;
74309;SDS011;62722;51.142;17.052;2023-08-30T06:36:25;2.92;;;1.20;;
74309;SDS011;62722;51.142;17.052;2023-08-30T06:38:52;2.13;;;1.00;;
74309;SDS011;62722;51.142;17.052;2023-08-30T06:41:22;2.10;;;0.90;;
74309;SDS011;62722;51.142;17.052;2023-08-30T06:43:48;1.88;;;0.95;;
74309;SDS011;62722;51.142;17.052;2023-08-30T06:46:16;2.08;;;0.90;;
74309;SDS011;62722;51.142;17.052;2023-08-30T06:48:42;2.15;;;1.00;;
74309;SDS011;62722;51.142;17.052;2023-08-30T06:51:10;1.80;;;0.90;;
74309;SDS011;62722;51.142;17.052;2023-08-30T06:53:37;2.88;;;1.33;;
74309;SDS011;62722;51.142;17.052;2023-08-30T06:56:04;2.40;;;1.13;;
74309;SDS011;62722;51.142;17.052;2023-08-30T06:58:32;2.15;;;1.10;;
74309;SDS011;62722;51.142;17.052;2023-08-30T07:00:59;2.83;;;1.10;;
74309;SDS011;62722;51.142;17.052;2023-08-30T07:03:28;2.05;;;1.00;;
74309;SDS011;62722;51.142;17.052;2023-08-30T07:05:55;2.13;;;0.90;;
74309;SDS011;62722;51.142;17.052;2023-08-30T07:08:22;2.60;;;1.00;;
74309;SDS011;62722;51.142;17.052;2023-08-30T07:10:51;2.22;;;1.15;;
74309;SDS011;62722;51.142;17.052;2023-08-30T07:13:17;1.75;;;0.88;;
74309;SDS011;62722;51.142;17.052;2023-08-30T07:15:46;2.63;;;0.90;;
74309;SDS011;62722;51.142;17.052;2023-08-30T07:18:13;2.22;;;0.80;;
74309;SDS011;62722;51.142;17.052;2023-08-30T07:20:40;3.85;;;1.20;;
74309;SDS011;62722;51.142;17.052;2023-08-30T07:23:07;1.75;;;0.80;;
74309;SDS011;62722;51.142;17.052;2023-08-30T07:25:36;1.70;;;0.80;;
74309;SDS011;62722;51.142;17.052;2023-08-30T07:28:04;2.58;;;0.80;;
74309;SDS011;62722;51.142;17.052;2023-08-30T07:30:31;1.42;;;0.80;;
74309;SDS011;62722;51.142;17.052;2023-08-30T07:32:59;1.88;;;0.82;;
74309;SDS011;62722;51.142;17.052;2023-08-30T07:35:26;1.70;;;0.90;;
74309;SDS011;62722;51.142;17.052;2023-08-30T07:37:53;1.70;;;0.80;;
74309;SDS011;62722;51.142;17.052;2023-08-30T07:40:20;2.25;;;0.73;;
74309;SDS011;62722;51.142;17.052;2023-08-30T07:42:51;1.67;;;0.80;;
74309;SDS011;62722;51.142;17.052;2023-08-30T07:45:18;1.58;;;0.80;;
74309;SDS011;62722;51.142;17.052;2023-08-30T07:47:45;2.40;;;0.82;;
74309;SDS011;62722;51.142;17.052;2023-08-30T07:50:14;2.13;;;0.90;;
74309;SDS011;62722;51.142;17.052;2023-08-30T07:52:41;1.42;;;0.88;;
74309;SDS011;62722;51.142;17.052;2023-08-30T07:55:08;1.55;;;0.70;;
74309;SDS011;62722;51.142;17.052;2023-08-30T07:57:35;1.30;;;0.60;;
74309;SDS011;62722;51.142;17.052;2023-08-30T08:00:02;1.30;;;0.65;;
74309;SDS011;62722;51.142;17.052;2023-08-30T08:02:29;1.40;;;0.70;;
74309;SDS011;62722;51.142;17.052;2023-08-30T08:04:57;1.30;;;0.70;;
74309;SDS011;62722;51.142;17.052;2023-08-30T08:07:25;1.75;;;0.60;;
74309;SDS011;62722;51.142;17.052;2023-08-30T08:09:52;1.38;;;0.70;;
74309;SDS011;62722;51.142;17.052;2023-08-30T08:12:19;1.38;;;0.60;;
74309;SDS011;62722;51.142;17.052;2023-08-30T08:14:47;1.80;;;0.70;;
74309;SDS011;62722;51.142;17.052;2023-08-30T08:17:13;1.77;;;0.68;;
74309;SDS011;62722;51.142;17.052;2023-08-30T08:19:41;1.60;;;0.80;;
74309;SDS011;62722;51.142;17.052;2023-08-30T08:22:09;1.30;;;0.63;;
74309;SDS011;62722;51.142;17.052;2023-08-30T08:24:38;1.60;;;0.80;;
74309;SDS011;62722;51.142;17.052;2023-08-30T08:27:04;1.40;;;0.65;;
74309;SDS011;62722;51.142;17.052;2023-08-30T08:29:32;2.70;;;0.88;;
74309;SDS011;62722;51.142;17.052;2023-08-30T08:31:59;1.42;;;0.63;;
74309;SDS011;62722;51.142;17.052;2023-08-30T08:34:26;1.30;;;0.80;;
74309;SDS011;62722;51.142;17.052;2023-08-30T08:36:53;3.17;;;0.90;;
74309;SDS011;62722;51.142;17.052;2023-08-30T08:39:20;1.63;;;0.85;;
74309;SDS011;62722;51.142;17.052;2023-08-30T08:41:48;2.08;;;1.00;;
74309;SDS011;62722;51.142;17.052;2023-08-30T08:44:18;1.63;;;0.90;;
74309;SDS011;62722;51.142;17.052;2023-08-30T08:46:47;2.63;;;1.10;;
74309;SDS011;62722;51.142;17.052;2023-08-30T08:49:15;2.22;;;1.13;;
74309;SDS011;62722;51.142;17.052;2023-08-30T08:51:42;3.13;;;1.42;;
74309;SDS011;62722;51.142;17.052;2023-08-30T08:54:10;2.22;;;1.40;;
74309;SDS011;62722;51.142;17.052;2023-08-30T08:56:38;2.53;;;1.17;;
74309;SDS011;62722;51.142;17.052;2023-08-30T08:59:07;2.38;;;1.25;;
74309;SDS011;62722;51.142;17.052;2023-08-30T09:01:34;2.05;;;1.20;;
74309;SDS011;62722;51.142;17.052;2023-08-30T09:04:05;2.25;;;1.30;;
74309;SDS011;62722;51.142;17.052;2023-08-30T09:06:33;2.28;;;1.38;;
74309;SDS011;62722;51.142;17.052;2023-08-30T09:09:00;2.17;;;1.25;;
74309;SDS011;62722;51.142;17.052;2023-08-30T09:11:29;2.42;;;1.30;;
74309;SDS011;62722;51.142;17.052;2023-08-30T09:13:57;2.03;;;1.23;;
74309;SDS011;62722;51.142;17.052;2023-08-30T09:16:26;2.67;;;1.30;;
74309;SDS011;62722;51.142;17.052;2023-08-30T09:18:57;1.90;;;1.10;;
74309;SDS011;62722;51.142;17.052;2023-08-30T09:21:24;2.40;;;1.20;;
74309;SDS011;62722;51.142;17.052;2023-08-30T09:23:58;1.80;;;0.95;;
74309;SDS011;62722;51.142;17.052;2023-08-30T09:26:25;1.80;;;1.10;;
74309;SDS011;62722;51.142;17.052;2023-08-30T09:28:54;1.95;;;1.20;;
74309;SDS011;62722;51.142;17.052;2023-08-30T09:31:21;3.10;;;1.08;;
74309;SDS011;62722;51.142;17.052;2023-08-30T09:33:49;1.75;;;1.10;;
74309;SDS011;62722;51.142;17.052;2023-08-30T09:36:19;1.95;;;1.10;;
74309;SDS011;62722;51.142;17.052;2023-08-30T09:38:49;2.08;;;1.02;;
74309;SDS011;62722;51.142;17.052;2023-08-30T09:41:16;1.90;;;1.30;;
74309;SDS011;62722;51.142;17.052;2023-08-30T09:43:44;1.65;;;0.95;;
74309;SDS011;62722;51.142;17.052;2023-08-30T09:46:13;1.60;;;0.82;;
74309;SDS011;62722;51.142;17.052;2023-08-30T09:48:40;2.17;;;1.17;;
74309;SDS011;62722;51.142;17.052;2023-08-30T09:51:09;2.30;;;1.20;;
74309;SDS011;62722;51.142;17.052;2023-08-30T09:53:40;2.78;;;1.10;;
74309;SDS011;62722;51.142;17.052;2023-08-30T09:56:10;1.80;;;1.02;;
74309;SDS011;62722;51.142;17.052;2023-08-30T09:58:38;3.42;;;0.98;;
74309;SDS011;62722;51.142;17.052;2023-08-30T10:01:05;2.15;;;1.38;;
74309;SDS011;62722;51.142;17.052;2023-08-30T10:03:33;1.85;;;1.00;;
74309;SDS011;62722;51.142;17.052;2023-08-30T10:06:01;2.17;;;0.88;;
74309;SDS011;62722;51.142;17.052;2023-08-30T10:08:33;2.50;;;1.08;;
74309;SDS011;62722;51.142;17.052;2023-08-30T10:13:29;1.80;;;0.90;;
74309;SDS011;62722;51.142;17.052;2023-08-30T10:15:58;2.35;;;1.00;;
74309;SDS011;62722;51.142;17.052;2023-08-30T10:18:27;1.98;;;1.02;;
74309;SDS011;62722;51.142;17.052;2023-08-30T10:20:56;2.50;;;1.13;;
74309;SDS011;62722;51.142;17.052;2023-08-30T10:23:24;2.28;;;1.20;;
74309;SDS011;62722;51.142;17.052;2023-08-30T10:25:53;3.08;;;1.33;;
74309;SDS011;62722;51.142;17.052;2023-08-30T10:28:21;1.90;;;1.10;;
74309;SDS011;62722;51.142;17.052;2023-08-30T10:30:48;2.28;;;1.13;;
74309;SDS011;62722;51.142;17.052;2023-08-30T10:33:18;2.97;;;1.10;;
74309;SDS011;62722;51.142;17.052;2023-08-30T10:35:46;1.88;;;1.10;;
74309;SDS011;62722;51.142;17.052;2023-08-30T10:38:23;4.30;;;1.38;;
74309;SDS011;62722;51.142;17.052;2023-08-30T10:40:52;2.30;;;1.35;;
74309;SDS011;62722;51.142;17.052;2023-08-30T10:43:27;2.50;;;1.13;;
74309;SDS011;62722;51.142;17.052;2023-08-30T10:46:01;2.70;;;1.17;;
74309;SDS011;62722;51.142;17.052;2023-08-30T10:48:35;3.58;;;1.60;;
74309;SDS011;62722;51.142;17.052;2023-08-30T10:51:03;3.17;;;1.83;;
74309;SDS011;62722;51.142;17.052;2023-08-30T10:53:31;2.95;;;1.83;;
74309;SDS011;62722;51.142;17.052;2023-08-30T10:56:08;3.15;;;1.77;;
74309;SDS011;62722;51.142;17.052;2023-08-30T10:58:40;3.03;;;1.75;;
74309;SDS011;62722;51.142;17.052;2023-08-30T11:01:07;3.30;;;1.75;;
74309;SDS011;62722;51.142;17.052;2023-08-30T11:03:36;3.35;;;1.92;;
74309;SDS011;62722;51.142;17.052;2023-08-30T11:06:03;3.75;;;2.15;;
74309;SDS011;62722;51.142;17.052;2023-08-30T11:08:30;4.10;;;2.30;;
74309;SDS011;62722;51.142;17.052;2023-08-30T11:11:02;4.85;;;2.40;;
74309;SDS011;62722;51.142;17.052;2023-08-30T11:13:31;3.95;;;2.35;;
74309;SDS011;62722;51.142;17.052;2023-08-30T11:16:01;5.63;;;3.13;;
74309;SDS011;62722;51.142;17.052;2023-08-30T11:18:29;4.13;;;2.60;;
74309;SDS011;62722;51.142;17.052;2023-08-30T11:20:59;6.57;;;3.20;;
74309;SDS011;62722;51.142;17.052;2023-08-30T11:23:27;4.38;;;3.00;;
74309;SDS011;62722;51.142;17.052;2023-08-30T11:25:54;5.63;;;3.10;;
74309;SDS011;62722;51.142;17.052;2023-08-30T11:28:22;4.28;;;2.75;;
74309;SDS011;62722;51.142;17.052;2023-08-30T11:30:50;5.57;;;3.10;;
74309;SDS011;62722;51.142;17.052;2023-08-30T11:33:19;4.28;;;2.80;;
74309;SDS011;62722;51.142;17.052;2023-08-30T11:35:51;4.10;;;2.45;;
74309;SDS011;62722;51.142;17.052;2023-08-30T11:38:18;4.53;;;2.35;;
74309;SDS011;62722;51.142;17.052;2023-08-30T11:40:46;2.90;;;1.83;;
74309;SDS011;62722;51.142;17.052;2023-08-30T11:43:15;3.17;;;2.13;;
74309;SDS011;62722;51.142;17.052;2023-08-30T11:45:42;3.17;;;2.38;;
74309;SDS011;62722;51.142;17.052;2023-08-30T11:48:11;4.38;;;2.97;;
74309;SDS011;62722;51.142;17.052;2023-08-30T11:50:38;4.32;;;2.80;;
74309;SDS011;62722;51.142;17.052;2023-08-30T11:53:06;4.45;;;2.85;;
74309;SDS011;62722;51.142;17.052;2023-08-30T11:55:33;4.63;;;3.13;;
74309;SDS011;62722;51.142;17.052;2023-08-30T11:58:01;3.88;;;2.78;;
74309;SDS011;62722;51.142;17.052;2023-08-30T12:00:28;4.93;;;3.13;;
74309;SDS011;62722;51.142;17.052;2023-08-30T12:02:59;4.72;;;3.00;;
74309;SDS011;62722;51.142;17.052;2023-08-30T12:05:28;4.25;;;2.90;;
74309;SDS011;62722;51.142;17.052;2023-08-30T12:07:59;4.55;;;2.85;;
74309;SDS011;62722;51.142;17.052;2023-08-30T12:10:28;4.70;;;2.80;;
74309;SDS011;62722;51.142;17.052;2023-08-30T12:12:56;3.45;;;1.90;;
74309;SDS011;62722;51.142;17.052;2023-08-30T12:15:23;2.42;;;1.35;;
74309;SDS011;62722;51.142;17.052;2023-08-30T12:17:54;2.60;;;1.27;;
74309;SDS011;62722;51.142;17.052;2023-08-30T12:20:21;2.55;;;1.30;;
74309;SDS011;62722;51.142;17.052;2023-08-30T12:22:51;2.25;;;1.25;;
74309;SDS011;62722;51.142;17.052;2023-08-30T12:25:20;2.85;;;1.40;;
74309;SDS011;62722;51.142;17.052;2023-08-30T12:27:48;3.20;;;1.40;;
74309;SDS011;62722;51.142;17.052;2023-08-30T12:30:17;2.70;;;1.70;;
74309;SDS011;62722;51.142;17.052;2023-08-30T12:32:44;2.20;;;1.45;;
74309;SDS011;62722;51.142;17.052;2023-08-30T12:35:11;2.20;;;1.40;;
74309;SDS011;62722;51.142;17.052;2023-08-30T12:37:39;2.58;;;1.63;;
74309;SDS011;62722;51.142;17.052;2023-08-30T12:40:08;3.47;;;2.50;;
74309;SDS011;62722;51.142;17.052;2023-08-30T12:42:35;3.60;;;2.42;;
74309;SDS011;62722;51.142;17.052;2023-08-30T12:45:03;3.30;;;2.00;;
74309;SDS011;62722;51.142;17.052;2023-08-30T12:47:31;4.88;;;3.10;;
74309;SDS011;62722;51.142;17.052;2023-08-30T12:49:59;4.72;;;2.70;;
74309;SDS011;62722;51.142;17.052;2023-08-30T12:52:27;3.72;;;2.22;;
74309;SDS011;62722;51.142;17.052;2023-08-30T12:54:54;4.70;;;2.03;;
74309;SDS011;62722;51.142;17.052;2023-08-30T12:57:23;2.80;;;1.50;;
74309;SDS011;62722;51.142;17.052;2023-08-30T12:59:49;2.30;;;1.50;;
74309;SDS011;62722;51.142;17.052;2023-08-30T13:02:17;3.08;;;1.60;;
74309;SDS011;62722;51.142;17.052;2023-08-30T13:04:44;2.42;;;1.30;;
74309;SDS011;62722;51.142;17.052;2023-08-30T13:07:11;2.30;;;1.38;;
74309;SDS011;62722;51.142;17.052;2023-08-30T13:09:38;2.20;;;1.25;;
74309;SDS011;62722;51.142;17.052;2023-08-30T13:12:06;2.20;;;1.10;;
74309;SDS011;62722;51.142;17.052;2023-08-30T13:14:34;2.00;;;1.00;;
74309;SDS011;62722;51.142;17.052;2023-08-30T13:17:01;2.47;;;1.10;;
74309;SDS011;62722;51.142;17.052;2023-08-30T13:19:28;1.83;;;0.95;;
74309;SDS011;62722;51.142;17.052;2023-08-30T13:21:55;1.70;;;0.90;;
74309;SDS011;62722;51.142;17.052;2023-08-30T13:24:23;2.05;;;1.00;;
74309;SDS011;62722;51.142;17.052;2023-08-30T13:26:50;2.58;;;1.00;;
74309;SDS011;62722;51.142;17.052;2023-08-30T13:29:17;2.20;;;0.90;;
74309;SDS011;62722;51.142;17.052;2023-08-30T13:31:45;2.00;;;1.10;;
74309;SDS011;62722;51.142;17.052;2023-08-30T13:34:13;1.60;;;0.90;;
74309;SDS011;62722;51.142;17.052;2023-08-30T13:36:40;1.90;;;1.10;;
74309;SDS011;62722;51.142;17.052;2023-08-30T13:39:07;1.48;;;0.82;;
74309;SDS011;62722;51.142;17.052;2023-08-30T13:41:34;1.63;;;1.00;;
74309;SDS011;62722;51.142;17.052;2023-08-30T13:44:01;2.38;;;0.80;;
74309;SDS011;62722;51.142;17.052;2023-08-30T13:46:29;1.67;;;0.90;;
74309;SDS011;62722;51.142;17.052;2023-08-30T13:48:57;1.60;;;0.85;;
74309;SDS011;62722;51.142;17.052;2023-08-30T13:51:25;1.73;;;0.80;;
74309;SDS011;62722;51.142;17.052;2023-08-30T13:53:52;1.83;;;0.82;;
74309;SDS011;62722;51.142;17.052;2023-08-30T13:56:20;2.10;;;0.90;;
74309;SDS011;62722;51.142;17.052;2023-08-30T13:58:46;4.10;;;0.93;;
74309;SDS011;62722;51.142;17.052;2023-08-30T14:01:14;2.28;;;0.90;;
74309;SDS011;62722;51.142;17.052;2023-08-30T14:03:41;2.00;;;0.80;;
74309;SDS011;62722;51.142;17.052;2023-08-30T14:06:09;2.60;;;0.85;;
74309;SDS011;62722;51.142;17.052;2023-08-30T14:08:36;1.88;;;1.00;;
74309;SDS011;62722;51.142;17.052;2023-08-30T14:11:03;3.22;;;0.90;;
74309;SDS011;62722;51.142;17.052;2023-08-30T14:13:30;1.80;;;0.90;;
74309;SDS011;62722;51.142;17.052;2023-08-30T14:15:58;1.40;;;0.80;;
74309;SDS011;62722;51.142;17.052;2023-08-30T14:18:25;1.80;;;0.88;;
74309;SDS011;62722;51.142;17.052;2023-08-30T14:20:55;2.45;;;0.93;;
74309;SDS011;62722;51.142;17.052;2023-08-30T14:23:23;2.08;;;0.90;;
74309;SDS011;62722;51.142;17.052;2023-08-30T14:25:57;1.98;;;0.90;;
74309;SDS011;62722;51.142;17.052;2023-08-30T14:28:24;1.58;;;1.00;;
74309;SDS011;62722;51.142;17.052;2023-08-30T14:30:51;3.15;;;0.93;;
74309;SDS011;62722;51.142;17.052;2023-08-30T14:33:18;2.03;;;0.98;;
74309;SDS011;62722;51.142;17.052;2023-08-30T14:35:46;2.80;;;0.90;;
74309;SDS011;62722;51.142;17.052;2023-08-30T14:38:13;1.50;;;0.77;;
74309;SDS011;62722;51.142;17.052;2023-08-30T14:40:41;5.50;;;2.03;;
74309;SDS011;62722;51.142;17.052;2023-08-30T14:43:08;1.80;;;0.98;;